Time;durP1;ratioP1;P1;durP2;ratioP2;P2;SDS_P1;SDS_P2;PMS_P1;PMS_P2;Temp;Humidity;BMP_temperature;BMP_pressure;BME280_temperature;BME280_humidity;BME280_pressure;Samples;Min_cycle;Max_cycle;Signal;HPM_P1;HPM_P2
2021/06/14 00:01:49;;;;;;;;;;;;;;;14.15;55.17;100152.00;4287737;33;32843;-89
2021/06/14 00:04:22;;;;;;;;;;;;;;;14.18;54.95;100151.59;4290364;33;33541;-96
2021/06/14 00:06:55;;;;;;;;;;;;;;;13.83;56.06;100146.19;4276900;33;34407;-90
2021/06/14 00:09:31;;;;;;;;;;;;;;;14.00;56.24;100145.87;4288306;33;33655;-90
2021/06/14 00:12:04;;;;;;;;;;;;;;;14.09;55.59;100145.50;4285925;33;33465;-95
2021/06/14 00:14:54;;;;;;;;;;;;;;;14.09;55.20;100145.50;4286733;33;34878;-89
2021/06/14 00:17:27;;;;;;;;;;;;;;;14.07;55.44;100146.72;4285479;33;34357;-89
2021/06/14 00:20:00;;;;;;;;;;;;;;;13.95;56.11;100139.16;4299815;33;34622;-94
2021/06/14 00:22:33;;;;;;;;;;;;;;;13.92;56.06;100138.69;4285757;33;34019;-95
2021/06/14 00:25:27;;;;;;;;;;;;;;;13.89;56.09;100134.53;4315607;33;35928;-90
2021/06/14 00:28:17;;;;;;;;;;;;;;;13.80;56.12;100135.69;4317618;33;33860;-90
2021/06/14 00:30:51;;;;;;;;;;;;;;;13.64;56.69;100133.28;4325193;33;33721;-94
2021/06/14 00:33:24;;;;;;;;;;;;;;;13.63;56.59;100134.34;4314272;33;33188;-96
2021/06/14 00:36:11;;;;;;;;;;;;;;;13.88;56.40;100132.84;4311461;33;34299;-94
2021/06/14 00:38:44;;;;;;;;;;;;;;;13.77;57.32;100138.81;4301695;33;34588;-90
2021/06/14 00:41:18;;;;;;;;;;;;;;;13.74;56.52;100137.34;4314005;33;34975;-95
2021/06/14 00:44:04;;;;;;;;;;;;;;;13.74;57.09;100133.78;4296113;33;34934;-94
2021/06/14 00:47:10;;;;;;;;;;;;;;;13.91;56.06;100132.44;4002389;33;36282;-94
2021/06/14 00:49:54;;;;;;;;;;;;;;;13.75;56.39;100135.47;4302321;33;34054;-89
2021/06/14 00:52:27;;;;;;;;;;;;;;;13.93;55.54;100141.22;4316059;33;33909;-95
2021/06/14 00:55:08;;;;;;;;;;;;;;;13.71;56.72;100134.16;4313327;33;34741;-89
2021/06/14 00:57:42;;;;;;;;;;;;;;;13.57;57.45;100136.78;4310337;33;34049;-90
2021/06/14 01:00:15;;;;;;;;;;;;;;;13.64;56.23;100130.56;4300787;33;34768;-94
2021/06/14 01:02:54;;;;;;;;;;;;;;;13.59;57.30;100142.88;4317878;33;34933;-90
2021/06/14 01:05:29;;;;;;;;;;;;;;;13.37;57.92;100138.53;4300376;33;33230;-90
2021/06/14 01:08:04;;;;;;;;;;;;;;;13.74;57.45;100136.50;4300626;33;33873;-93
2021/06/14 01:10:38;;;;;;;;;;;;;;;13.73;56.85;100135.66;4289100;33;32949;-90
2021/06/14 01:13:27;;;;;;;;;;;;;;;13.49;57.15;100144.22;4287105;33;35165;-93
2021/06/14 01:16:18;;;;;;;;;;;;;;;13.73;56.68;100141.09;4313221;33;33514;-89
2021/06/14 01:19:06;;;;;;;;;;;;;;;13.30;58.43;100143.03;4312044;33;34805;-95
2021/06/14 01:21:42;;;;;;;;;;;;;;;13.42;57.79;100145.03;4312255;33;32962;-89
2021/06/14 01:24:44;;;;;;;;;;;;;;;13.62;57.25;100141.63;4308664;33;36594;-94
2021/06/14 01:27:44;;;;;;;;;;;;;;;13.47;57.73;100147.16;4321894;33;33317;-88
2021/06/14 01:30:34;;;;;;;;;;;;;;;13.18;58.49;100140.81;4302088;33;35231;-95
2021/06/14 01:33:17;;;;;;;;;;;;;;;13.13;58.34;100143.28;4305812;33;33509;-94
2021/06/14 01:36:08;;;;;;;;;;;;;;;13.06;59.06;100132.37;4291032;33;33425;-94
2021/06/14 01:38:55;;;;;;;;;;;;;;;13.36;58.00;100128.69;4304538;33;31998;-89
2021/06/14 01:41:28;;;;;;;;;;;;;;;13.27;58.40;100136.09;4303438;33;33785;-88
2021/06/14 01:44:03;;;;;;;;;;;;;;;13.29;58.01;100134.03;4315106;33;33647;-94
2021/06/14 01:46:43;;;;;;;;;;;;;;;12.78;59.54;100126.84;4316687;33;34978;-89
2021/06/14 01:49:16;;;;;;;;;;;;;;;12.25;61.49;100132.50;4313252;33;33548;-94
2021/06/14 01:52:02;;;;;;;;;;;;;;;12.29;62.01;100130.25;4287702;33;33866;-88
2021/06/14 01:54:36;;;;;;;;;;;;;;;12.28;62.02;100140.25;4300125;33;34052;-94
2021/06/14 01:57:25;;;;;;;;;;;;;;;12.28;61.99;100134.84;4315654;33;34310;-95
2021/06/14 02:00:21;;;;;;;;;;;;;;;12.36;62.05;100123.91;4306123;33;34077;-88
2021/06/14 02:02:54;;;;;;;;;;;;;;;12.32;61.74;100119.91;4283069;33;34088;-94
2021/06/14 02:05:41;;;;;;;;;;;;;;;12.14;62.68;100120.28;4277111;33;34606;-91
2021/06/14 02:08:31;;;;;;;;;;;;;;;12.06;63.02;100128.50;4282840;33;35198;-95
2021/06/14 02:11:27;;;;;;;;;;;;;;;12.25;62.64;100127.09;4303906;33;35720;-87
2021/06/14 02:14:26;;;;;;;;;;;;;;;12.78;61.63;100124.16;4297546;33;33677;-95
2021/06/14 02:17:20;;;;;;;;;;;;;;;12.57;62.53;100124.13;4228008;33;34306;-95
2021/06/14 02:20:08;;;;;;;;;;;;;;;12.78;61.06;100124.16;4311258;33;32789;-96
2021/06/14 02:22:41;;;;;;;;;;;;;;;12.27;62.35;100130.44;4295524;33;34020;-95
2021/06/14 02:25:27;;;;;;;;;;;;;;;12.32;62.49;100129.88;4320614;33;33923;-87
2021/06/14 02:28:00;;;;;;;;;;;;;;;12.57;61.75;100121.44;4316206;33;34782;-88
2021/06/14 02:30:33;;;;;;;;;;;;;;;12.47;61.97;100128.00;4307724;33;34110;-95
2021/06/14 02:33:20;;;;;;;;;;;;;;;12.46;62.01;100126.31;4294534;33;33787;-95
2021/06/14 02:36:09;;;;;;;;;;;;;;;12.24;62.77;100132.72;4307498;33;34002;-94
2021/06/14 02:39:14;;;;;;;;;;;;;;;12.13;63.02;100120.47;4270644;27;36522;-96
2021/06/14 02:42:29;;;;;;;;;;;;;;;11.79;64.26;100122.69;4153123;33;36270;-89
2021/06/14 02:45:03;;;;;;;;;;;;;;;11.61;65.21;100120.34;4290419;33;32898;-96
2021/06/14 02:47:50;;;;;;;;;;;;;;;11.59;65.20;100126.97;4293028;33;33120;-88
2021/06/14 02:50:23;;;;;;;;;;;;;;;11.97;64.35;100121.50;4303600;33;33672;-89
2021/06/14 02:52:56;;;;;;;;;;;;;;;12.13;63.49;100128.63;4303878;33;34899;-89
2021/06/14 02:55:30;;;;;;;;;;;;;;;12.15;63.14;100132.78;4292231;33;31607;-88
2021/06/14 02:58:03;;;;;;;;;;;;;;;12.03;63.69;100126.19;4303476;33;34010;-90
2021/06/14 03:00:37;;;;;;;;;;;;;;;12.38;63.10;100126.44;4292363;33;34562;-89
2021/06/14 03:03:22;;;;;;;;;;;;;;;12.05;64.33;100129.56;4271944;33;33949;-96
2021/06/14 03:06:04;;;;;;;;;;;;;;;12.47;63.37;100125.28;4301074;33;32430;-95
2021/06/14 03:08:49;;;;;;;;;;;;;;;12.33;63.12;100123.44;4286479;33;35033;-94
2021/06/14 03:11:24;;;;;;;;;;;;;;;12.58;63.19;100120.41;4284943;33;34654;-95
2021/06/14 03:14:22;;;;;;;;;;;;;;;12.53;62.35;100115.56;4292174;28;35729;-93
2021/06/14 03:17:06;;;;;;;;;;;;;;;12.06;63.75;100120.38;4302402;33;33181;-94
2021/06/14 03:20:10;;;;;;;;;;;;;;;12.10;64.25;100118.97;3852549;33;35769;-94
2021/06/14 03:22:49;;;;;;;;;;;;;;;11.98;64.38;100117.78;4288758;33;35055;-88
2021/06/14 03:25:22;;;;;;;;;;;;;;;12.29;63.47;100119.41;4300281;33;34216;-90
2021/06/14 03:27:56;;;;;;;;;;;;;;;12.44;62.85;100109.41;4300123;33;33553;-95
2021/06/14 03:31:19;;;;;;;;;;;;;;;12.37;62.99;100122.84;4222308;33;35852;-89
2021/06/14 03:33:51;;;;;;;;;;;;;;;12.62;62.60;100127.97;4290442;33;34774;-92
2021/06/14 03:36:39;;;;;;;;;;;;;;;12.26;nan;100127.94;4290363;33;34989;-89
2021/06/14 03:39:17;;;;;;;;;;;;;;;12.66;62.61;100129.22;4277666;33;33461;-95
2021/06/14 03:42:07;;;;;;;;;;;;;;;12.66;62.70;100131.13;4302258;33;34982;-89
2021/06/14 03:44:39;;;;;;;;;;;;;;;13.12;61.41;100128.03;4304104;33;33978;-88
2021/06/14 03:47:12;;;;;;;;;;;;;;;12.77;62.20;100135.19;4313985;33;33986;-94
2021/06/14 03:50:00;;;;;;;;;;;;;;;12.83;62.19;100138.00;4303353;33;32377;-95
2021/06/14 03:55:48;;;;;;;;;;;;;;;13.23;61.37;100127.53;4285167;33;32730;-94
2021/06/14 04:01:58;;;;;;;;;;;;;;;12.82;62.41;100130.03;4220779;33;36240;-94
2021/06/14 04:05:05;;;;;;;;;;;;;;;12.95;62.49;100126.59;4165520;33;35190;-94
2021/06/14 04:11:05;;;;;;;;;;;;;;;13.24;61.86;100121.03;4299235;33;35670;-92
2021/06/14 04:13:38;;;;;;;;;;;;;;;12.95;62.75;100132.03;4300538;33;33020;-89
2021/06/14 04:16:10;;;;;;;;;;;;;;;13.32;61.43;100132.78;4302456;33;34535;-93
2021/06/14 04:19:21;;;;;;;;;;;;;;;13.42;61.34;100136.88;4275914;27;35667;-89
2021/06/14 04:21:54;;;;;;;;;;;;;;;13.58;61.29;100132.22;4318366;33;33517;-95
2021/06/14 04:28:06;;;;;;;;;;;;;;;13.94;60.26;100142.06;4082197;33;35460;-89
2021/06/14 04:30:39;;;;;;;;;;;;;;;13.58;60.53;100141.19;4287681;33;33905;-89
2021/06/14 04:33:11;;;;;;;;;;;;;;;13.75;60.85;100139.00;4276055;33;34040;-95
2021/06/14 04:35:57;;;;;;;;;;;;;;;13.91;60.96;100137.88;4288122;33;33752;-88
2021/06/14 04:38:30;;;;;;;;;;;;;;;13.70;60.93;100135.22;4301501;33;33688;-88
2021/06/14 04:41:03;;;;;;;;;;;;;;;13.95;60.34;100135.56;4290141;33;34572;-95
2021/06/14 04:43:36;;;;;;;;;;;;;;;13.76;61.00;100137.97;4290063;33;34903;-88
2021/06/14 04:46:27;;;;;;;;;;;;;;;14.00;60.36;100151.31;4293097;33;34324;-95
2021/06/14 04:49:00;;;;;;;;;;;;;;;14.11;60.28;100154.28;4291960;33;32931;-89
2021/06/14 04:51:34;;;;;;;;;;;;;;;14.15;60.34;100149.28;4315960;33;33808;-89
2021/06/14 04:54:08;;;;;;;;;;;;;;;13.95;60.52;100144.59;4316044;33;34768;-89
2021/06/14 04:56:41;;;;;;;;;;;;;;;14.19;60.42;100144.28;4304733;33;33050;-89
2021/06/14 04:59:14;;;;;;;;;;;;;;;14.42;59.85;100144.81;4316187;33;33536;-88
2021/06/14 05:01:46;;;;;;;;;;;;;;;14.10;59.63;100149.03;4315874;33;34051;-95
2021/06/14 05:04:19;;;;;;;;;;;;;;;14.37;60.09;100149.19;4304121;33;34381;-89
2021/06/14 05:06:52;;;;;;;;;;;;;;;14.38;60.08;100150.84;4315309;33;33492;-93
2021/06/14 05:09:25;;;;;;;;;;;;;;;14.24;59.90;100147.25;4304074;33;34179;-93
2021/06/14 05:12:20;;;;;;;;;;;;;;;13.97;61.16;100155.25;3868329;33;37340;-95
2021/06/14 05:14:53;;;;;;;;;;;;;;;14.15;62.15;100151.16;4301636;33;34838;-95
2021/06/14 05:17:53;;;;;;;;;;;;;;;14.59;60.15;100152.63;4273892;33;33707;-96
2021/06/14 05:20:30;;;;;;;;;;;;;;;14.48;60.72;100152.16;4296361;33;34075;-96
2021/06/14 05:23:16;;;;;;;;;;;;;;;14.70;60.80;100156.66;4300141;33;33247;-95
2021/06/14 05:25:49;;;;;;;;;;;;;;;14.66;60.02;100156.22;4277459;33;34342;-95
2021/06/14 05:28:43;;;;;;;;;;;;;;;14.61;59.93;100159.56;4289480;33;32753;-96
2021/06/14 05:34:24;;;;;;;;;;;;;;;14.67;59.78;100167.94;4300264;33;35726;-96
2021/06/14 05:37:13;;;;;;;;;;;;;;;14.60;59.67;100160.56;4316866;33;33725;-95
2021/06/14 05:39:46;;;;;;;;;;;;;;;14.89;60.52;100161.31;4319690;33;33135;-95
2021/06/14 05:42:31;;;;;;;;;;;;;;;15.40;59.25;100156.38;4296113;33;34288;-96
2021/06/14 05:45:05;;;;;;;;;;;;;;;15.53;59.28;100156.38;4249614;33;35600;-94
2021/06/14 05:47:49;;;;;;;;;;;;;;;15.79;59.27;100160.97;4279685;33;32802;-95
2021/06/14 05:50:29;;;;;;;;;;;;;;;15.98;58.95;100163.91;4267429;33;33134;-96
2021/06/14 05:53:26;;;;;;;;;;;;;;;16.25;59.24;100164.66;4312174;33;32999;-96
2021/06/14 05:56:03;;;;;;;;;;;;;;;16.02;58.66;100157.81;4281808;33;34823;-96
2021/06/14 05:58:51;;;;;;;;;;;;;;;15.86;58.76;100166.44;4270215;33;34590;-96
2021/06/14 06:01:50;;;;;;;;;;;;;;;16.22;56.96;100156.91;4288655;33;32790;-96
2021/06/14 06:04:25;;;;;;;;;;;;;;;16.06;57.46;100161.78;4279096;33;36551;-96
2021/06/14 06:07:01;;;;;;;;;;;;;;;16.29;57.46;100163.19;4290012;33;33451;-95
2021/06/14 06:09:46;;;;;;;;;;;;;;;16.40;56.02;100167.97;4292136;27;34478;-94
2021/06/14 06:12:22;;;;;;;;;;;;;;;16.22;58.41;100170.53;4261819;33;32913;-95
2021/06/14 06:15:22;;;;;;;;;;;;;;;16.54;55.90;100173.38;4252643;33;33183;-96
2021/06/14 06:17:59;;;;;;;;;;;;;;;16.72;57.52;100175.38;4261196;33;32838;-95
2021/06/14 06:20:34;;;;;;;;;;;;;;;16.97;53.60;100166.47;4258219;33;34147;-95
2021/06/14 06:23:25;;;;;;;;;;;;;;;16.88;56.22;100161.25;4280304;33;31971;-96
2021/06/14 06:26:03;;;;;;;;;;;;;;;16.90;55.10;100161.03;4284662;33;32906;-96
2021/06/14 06:28:39;;;;;;;;;;;;;;;17.12;55.49;100164.28;4289199;33;34112;-96
2021/06/14 06:31:31;;;;;;;;;;;;;;;17.68;54.32;100167.19;4287233;33;34819;-96
2021/06/14 06:34:29;;;;;;;;;;;;;;;17.98;52.39;100162.75;4288066;33;31423;-96
2021/06/14 06:37:15;;;;;;;;;;;;;;;18.30;51.47;100157.12;4314139;33;33573;-96
2021/06/14 06:40:07;;;;;;;;;;;;;;;18.28;53.33;100161.19;4281566;33;34793;-96
2021/06/14 06:43:00;;;;;;;;;;;;;;;18.04;53.65;100152.81;4292000;33;33977;-94
2021/06/14 06:45:56;;;;;;;;;;;;;;;18.24;52.85;100157.22;4294979;33;33872;-95
2021/06/14 06:48:49;;;;;;;;;;;;;;;17.74;52.29;100150.75;4259040;33;35256;-94
2021/06/14 06:51:23;;;;;;;;;;;;;;;18.27;51.63;100143.91;4279214;33;34188;-95
2021/06/14 06:54:11;;;;;;;;;;;;;;;18.27;50.98;100151.28;4258381;33;34522;-89
2021/06/14 06:56:44;;;;;;;;;;;;;;;18.58;50.32;100160.38;4264051;33;33109;-96
2021/06/14 06:59:31;;;;;;;;;;;;;;;18.59;49.74;100156.56;4285043;33;34441;-95
2021/06/14 07:02:07;;;;;;;;;;;;;;;18.92;51.80;100160.78;4261253;33;32749;-95
2021/06/14 07:04:55;;;;;;;;;;;;;;;19.12;49.17;100158.63;4309010;33;36534;-94
2021/06/14 07:07:28;;;;;;;;;;;;;;;19.20;48.86;100157.44;4300652;33;33636;-90
2021/06/14 07:10:04;;;;;;;;;;;;;;;19.37;49.68;100154.84;4308897;33;33908;-90
2021/06/14 07:12:37;;;;;;;;;;;;;;;19.48;50.51;100162.25;4311336;33;32548;-94
2021/06/14 07:15:16;;;;;;;;;;;;;;;19.97;51.25;100163.97;4272091;33;33548;-96
2021/06/14 07:17:49;;;;;;;;;;;;;;;20.00;48.82;100172.56;4273896;33;33858;-89
2021/06/14 07:20:23;;;;;;;;;;;;;;;20.31;49.89;100167.75;4271101;33;34967;-95
2021/06/14 07:22:56;;;;;;;;;;;;;;;20.31;50.05;100162.25;4241017;33;33240;-90
2021/06/14 07:25:29;;;;;;;;;;;;;;;20.39;48.61;100163.78;4265189;33;35682;-90
2021/06/14 07:28:02;;;;;;;;;;;;;;;20.27;47.96;100172.91;4280989;33;32362;-90
2021/06/14 07:30:37;;;;;;;;;;;;;;;19.75;49.91;100170.03;4270898;33;34074;-93
2021/06/14 07:33:10;;;;;;;;;;;;;;;19.78;50.50;100164.09;4268467;33;34518;-89
2021/06/14 07:35:43;;;;;;;;;;;;;;;20.19;48.26;100172.44;4266357;33;33891;-91
2021/06/14 07:38:18;;;;;;;;;;;;;;;20.31;49.96;100169.66;4278668;33;32540;-93
2021/06/14 07:40:52;;;;;;;;;;;;;;;20.25;49.20;100174.22;4261308;33;34093;-89
2021/06/14 07:43:26;;;;;;;;;;;;;;;20.61;47.96;100175.81;4266510;33;34281;-93
2021/06/14 07:46:00;;;;;;;;;;;;;;;21.03;45.73;100179.37;4254207;33;34611;-90
2021/06/14 07:48:32;;;;;;;;;;;;;;;21.16;46.52;100173.56;4283717;33;34114;-91
2021/06/14 07:51:09;;;;;;;;;;;;;;;21.34;47.46;100173.34;4257016;33;32938;-90
2021/06/14 07:53:42;;;;;;;;;;;;;;;21.58;46.71;100177.91;4254214;33;33920;-89
2021/06/14 07:56:15;;;;;;;;;;;;;;;21.84;44.52;100174.47;4232972;33;35584;-90
2021/06/14 07:58:50;;;;;;;;;;;;;;;21.79;48.96;100170.81;4254869;33;34142;-91
2021/06/14 08:01:23;;;;;;;;;;;;;;;21.76;45.39;100172.13;4264867;33;35291;-94
2021/06/14 08:03:58;;;;;;;;;;;;;;;22.01;45.13;100173.63;4267421;33;35831;-91
2021/06/14 08:06:31;;;;;;;;;;;;;;;22.23;44.56;100170.91;4255985;33;34745;-90
2021/06/14 08:09:07;;;;;;;;;;;;;;;22.03;46.29;100171.44;4257382;33;33842;-90
2021/06/14 08:11:44;;;;;;;;;;;;;;;22.32;46.61;100171.31;4255459;33;34475;-89
2021/06/14 08:14:17;;;;;;;;;;;;;;;22.46;44.82;100163.53;4279152;33;34083;-89
2021/06/14 08:16:50;;;;;;;;;;;;;;;22.30;45.03;100165.19;4293517;33;34173;-89
2021/06/14 08:19:42;;;;;;;;;;;;;;;22.92;42.43;100166.81;4271570;33;33227;-89
2021/06/14 08:22:37;;;;;;;;;;;;;;;23.11;43.26;100169.22;4280303;33;34326;-91
2021/06/14 08:25:11;;;;;;;;;;;;;;;22.72;44.39;100165.50;4305086;33;34536;-91
2021/06/14 08:27:44;;;;;;;;;;;;;;;23.05;43.17;100163.66;4294798;33;33659;-91
2021/06/14 08:30:19;;;;;;;;;;;;;;;23.22;44.57;100165.50;4292570;33;34117;-93
2021/06/14 08:32:52;;;;;;;;;;;;;;;23.46;41.92;100160.47;4279957;33;35495;-91
2021/06/14 08:35:26;;;;;;;;;;;;;;;23.40;44.09;100156.00;4293308;33;34250;-91
2021/06/14 08:37:58;;;;;;;;;;;;;;;23.36;39.29;100150.16;4284553;33;35131;-90
2021/06/14 08:40:33;;;;;;;;;;;;;;;23.60;40.34;100147.06;4304800;33;35126;-96
2021/06/14 08:43:06;;;;;;;;;;;;;;;23.71;43.04;100153.47;4282336;33;35543;-91
2021/06/14 08:45:42;;;;;;;;;;;;;;;24.08;41.83;100147.12;4280766;33;34733;-91
2021/06/14 08:48:15;;;;;;;;;;;;;;;23.93;41.66;100148.69;4294457;33;34304;-91
2021/06/14 08:50:48;;;;;;;;;;;;;;;24.06;38.52;100143.81;4306533;33;33658;-95
2021/06/14 08:53:21;;;;;;;;;;;;;;;23.99;42.20;100146.78;4291756;33;34937;-92
2021/06/14 08:55:58;;;;;;;;;;;;;;;24.09;39.73;100151.56;4303838;33;34362;-91
2021/06/14 08:58:32;;;;;;;;;;;;;;;24.36;40.02;100145.87;4289993;33;34034;-91
2021/06/14 09:01:05;;;;;;;;;;;;;;;24.00;37.37;100142.94;4306413;33;33246;-94
2021/06/14 09:03:38;;;;;;;;;;;;;;;24.14;40.83;100144.09;4296766;33;34882;-92
2021/06/14 09:06:11;;;;;;;;;;;;;;;24.62;37.74;100157.88;4293511;33;33506;-91
2021/06/14 09:08:54;;;;;;;;;;;;;;;24.44;36.86;100145.34;4297501;33;33835;-91
2021/06/14 09:11:29;;;;;;;;;;;;;;;24.70;37.24;100134.44;4308209;33;32880;-96
2021/06/14 09:14:02;;;;;;;;;;;;;;;24.96;38.68;100137.25;4285446;33;33580;-92
2021/06/14 09:16:35;;;;;;;;;;;;;;;25.34;36.99;100129.56;4284907;33;35424;-92
2021/06/14 09:19:21;;;;;;;;;;;;;;;25.01;36.33;100129.78;4306105;33;33703;-95
2021/06/14 09:22:21;;;;;;;;;;;;;;;25.43;36.70;100125.13;4259008;33;36587;-91
2021/06/14 09:24:57;;;;;;;;;;;;;;;25.62;34.53;100127.34;4310973;33;33384;-93
2021/06/14 09:27:34;;;;;;;;;;;;;;;25.28;33.55;100119.59;4287887;33;33686;-91
2021/06/14 09:30:26;;;;;;;;;;;;;;;25.53;36.18;100127.91;4287712;33;32525;-92
2021/06/14 09:33:02;;;;;;;;;;;;;;;25.77;33.96;100124.56;4301773;33;33827;-93
2021/06/14 09:35:52;;;;;;;;;;;;;;;26.10;36.31;100125.06;4293867;33;34330;-92
2021/06/14 09:38:29;;;;;;;;;;;;;;;26.14;32.72;100128.09;4286450;33;34717;-92
2021/06/14 09:41:08;;;;;;;;;;;;;;;25.73;32.70;100127.06;4309361;33;34601;-92
2021/06/14 09:43:44;;;;;;;;;;;;;;;24.82;32.91;100110.16;4295371;33;33090;-91
2021/06/14 09:46:21;;;;;;;;;;;;;;;25.25;34.57;100106.31;4296717;33;32691;-93
2021/06/14 09:49:04;;;;;;;;;;;;;;;25.60;34.92;100110.19;4296671;33;33991;-93
2021/06/14 09:51:37;;;;;;;;;;;;;;;25.79;36.54;100100.19;4296971;33;33929;-90
2021/06/14 09:54:10;;;;;;;;;;;;;;;25.99;32.68;100104.87;4286978;33;33575;-94
2021/06/14 09:56:43;;;;;;;;;;;;;;;25.59;37.16;100106.59;4297693;33;36460;-96
2021/06/14 09:59:17;;;;;;;;;;;;;;;26.32;33.75;100101.69;4287282;33;35189;-91
2021/06/14 10:02:03;;;;;;;;;;;;;;;26.66;32.77;100104.56;4294641;33;33685;-91
2021/06/14 10:04:36;;;;;;;;;;;;;;;27.03;32.13;100105.22;4311735;33;33094;-93
2021/06/14 10:07:12;;;;;;;;;;;;;;;26.56;32.54;100094.37;4283609;33;34595;-93
2021/06/14 10:09:46;;;;;;;;;;;;;;;26.82;30.95;100097.03;4297617;33;34234;-93
2021/06/14 10:12:20;;;;;;;;;;;;;;;26.38;31.73;100092.28;4308879;33;34013;-93
2021/06/14 10:14:55;;;;;;;;;;;;;;;26.79;34.42;100100.38;4294714;33;32810;-91
2021/06/14 10:17:31;;;;;;;;;;;;;;;27.35;31.04;100110.25;4288406;33;33280;-94
2021/06/14 10:20:13;;;;;;;;;;;;;;;26.89;32.48;100102.28;4309471;33;33704;-92
2021/06/14 10:22:50;;;;;;;;;;;;;;;26.93;28.88;100095.84;4304606;33;34419;-93
2021/06/14 10:25:24;;;;;;;;;;;;;;;27.40;32.57;100087.19;4308192;33;33831;-96
2021/06/14 10:27:58;;;;;;;;;;;;;;;26.94;31.44;100091.13;4279229;33;34298;-91
2021/06/14 10:30:30;;;;;;;;;;;;;;;27.61;29.59;100088.63;4310590;33;34660;-93
2021/06/14 10:33:05;;;;;;;;;;;;;;;28.00;30.34;100071.03;4290747;33;34864;-92
2021/06/14 10:35:59;;;;;;;;;;;;;;;27.75;29.11;100066.56;4298450;33;33682;-93
2021/06/14 10:38:31;;;;;;;;;;;;;;;27.43;30.66;100067.19;4322176;33;34621;-94
2021/06/14 10:41:04;;;;;;;;;;;;;;;27.86;32.18;100056.19;4298080;33;33167;-93
2021/06/14 10:43:38;;;;;;;;;;;;;;;28.41;30.26;100050.22;4312458;33;34630;-94
2021/06/14 10:46:12;;;;;;;;;;;;;;;28.22;29.38;100041.03;4315294;33;33150;-93
2021/06/14 10:48:48;;;;;;;;;;;;;;;28.45;31.04;100036.56;4290176;33;34477;-92
2021/06/14 10:51:21;;;;;;;;;;;;;;;28.17;30.56;100037.22;4313613;33;35124;-92
2021/06/14 10:54:23;;;;;;;;;;;;;;;28.10;31.62;100036.75;4323062;33;33941;-94
2021/06/14 10:57:06;;;;;;;;;;;;;;;28.12;30.30;100030.91;4301604;33;33922;-93
2021/06/14 10:59:45;;;;;;;;;;;;;;;28.64;26.62;100026.28;4323043;33;34469;-91
2021/06/14 11:02:22;;;;;;;;;;;;;;;28.65;28.43;100016.84;4310256;33;35010;-95
2021/06/14 11:05:04;;;;;;;;;;;;;;;28.43;29.76;100031.31;4286044;33;34458;-96
2021/06/14 11:07:41;;;;;;;;;;;;;;;28.04;29.36;100028.75;4313376;33;33885;-91
2021/06/14 11:10:16;;;;;;;;;;;;;;;27.38;31.39;100034.75;4320480;33;34079;-90
2021/06/14 11:12:49;;;;;;;;;;;;;;;27.54;31.46;100040.97;4285362;33;33836;-90
2021/06/14 11:15:22;;;;;;;;;;;;;;;26.93;31.01;100047.88;4308976;33;34893;-92
2021/06/14 11:17:55;;;;;;;;;;;;;;;26.03;32.24;100049.75;4286049;33;32799;-90
2021/06/14 11:20:31;;;;;;;;;;;;;;;26.33;32.72;100047.97;4304396;33;34629;-94
2021/06/14 11:23:07;;;;;;;;;;;;;;;26.95;30.31;100051.19;4297716;33;33676;-90
2021/06/14 11:25:41;;;;;;;;;;;;;;;27.23;32.25;100035.72;4297013;33;33899;-92
2021/06/14 11:28:27;;;;;;;;;;;;;;;27.33;34.22;100047.84;4318617;33;34174;-88
2021/06/14 11:31:00;;;;;;;;;;;;;;;27.34;29.55;100042.00;4310015;33;34635;-88
2021/06/14 11:33:37;;;;;;;;;;;;;;;27.08;29.87;100047.75;4306734;33;36021;-89
2021/06/14 11:36:20;;;;;;;;;;;;;;;27.39;34.10;100043.91;4285894;33;34476;-93
2021/06/14 11:38:54;;;;;;;;;;;;;;;27.77;31.26;100041.28;4286890;33;32815;-90
2021/06/14 11:41:42;;;;;;;;;;;;;;;27.74;28.79;100041.88;4275831;33;34579;-92
2021/06/14 11:44:29;;;;;;;;;;;;;;;27.15;28.69;100050.19;4296232;33;34027;-90
2021/06/14 11:47:13;;;;;;;;;;;;;;;27.13;27.57;100044.13;4295546;33;34995;-93
2021/06/14 11:50:06;;;;;;;;;;;;;;;26.33;30.70;100050.72;4304780;33;36397;-88
2021/06/14 11:52:45;;;;;;;;;;;;;;;26.48;29.44;100039.56;4311226;33;33585;-91
2021/06/14 11:55:19;;;;;;;;;;;;;;;25.80;27.92;100040.97;4308180;33;34802;-89
2021/06/14 11:58:08;;;;;;;;;;;;;;;25.96;29.24;100049.19;4299320;33;33952;-89
2021/06/14 12:00:53;;;;;;;;;;;;;;;25.43;27.97;100030.25;4292645;33;34916;-91
2021/06/14 12:03:55;;;;;;;;;;;;;;;25.24;30.26;100028.06;4289178;33;33402;-93
2021/06/14 12:06:47;;;;;;;;;;;;;;;24.99;29.68;100021.41;4297405;33;34879;-91
2021/06/14 12:09:32;;;;;;;;;;;;;;;24.58;30.19;100026.06;4303896;33;33928;-91
2021/06/14 12:12:05;;;;;;;;;;;;;;;25.46;29.38;100015.88;4306556;33;32663;-91
2021/06/14 12:14:38;;;;;;;;;;;;;;;26.06;28.99;100013.19;4298009;33;34262;-89
2021/06/14 12:17:10;;;;;;;;;;;;;;;26.81;30.17;100008.59;4298096;33;33738;-89
2021/06/14 12:19:47;;;;;;;;;;;;;;;27.27;29.57;100000.69;4269489;33;876290;-96
2021/06/14 12:22:20;;;;;;;;;;;;;;;27.71;31.02;99993.34;4294561;33;34652;-89
2021/06/14 12:25:01;;;;;;;;;;;;;;;28.30;28.88;99993.13;4304949;33;35595;-96
2021/06/14 12:27:37;;;;;;;;;;;;;;;28.58;26.05;99985.78;4316233;33;34902;-90
2021/06/14 12:30:11;;;;;;;;;;;;;;;28.92;26.28;99981.06;4281856;33;33063;-88
2021/06/14 12:32:44;;;;;;;;;;;;;;;28.81;25.36;99991.56;4296435;33;33110;-89
2021/06/14 12:35:17;;;;;;;;;;;;;;;29.28;26.47;99986.84;4286881;33;34256;-89
2021/06/14 12:37:55;;;;;;;;;;;;;;;29.39;22.69;99991.09;4287508;33;33697;-89
2021/06/14 12:40:29;;;;;;;;;;;;;;;29.69;24.28;99980.50;4294787;33;33392;-89
2021/06/14 12:43:04;;;;;;;;;;;;;;;29.90;24.62;99978.13;4310052;33;33232;-95
2021/06/14 12:45:38;;;;;;;;;;;;;;;29.87;23.97;99977.94;4310458;33;33969;-94
2021/06/14 12:48:12;;;;;;;;;;;;;;;29.93;25.86;99968.34;4311145;33;33967;-90
2021/06/14 12:50:46;;;;;;;;;;;;;;;30.14;24.33;99965.09;4311510;33;34631;-94
2021/06/14 12:53:21;;;;;;;;;;;;;;;30.68;25.96;99968.03;4299957;33;32783;-94
2021/06/14 12:55:56;;;;;;;;;;;;;;;30.40;24.06;99957.78;4299964;33;33209;-93
2021/06/14 12:58:36;;;;;;;;;;;;;;;30.53;25.68;99960.88;4314577;33;33090;-96
2021/06/14 13:01:10;;;;;;;;;;;;;;;30.52;24.62;99962.00;4301093;33;34461;-95
2021/06/14 13:03:43;;;;;;;;;;;;;;;30.21;26.17;99959.91;4287030;33;33287;-96
2021/06/14 13:06:16;;;;;;;;;;;;;;;30.20;24.40;99952.69;4300672;33;34034;-87
2021/06/14 13:08:58;;;;;;;;;;;;;;;30.53;24.21;99941.34;4320591;33;34158;-94
2021/06/14 13:11:42;;;;;;;;;;;;;;;30.11;24.08;99952.63;4298481;33;34395;-90
2021/06/14 13:14:27;;;;;;;;;;;;;;;30.88;22.69;99938.78;4299771;33;33659;-95
2021/06/14 13:17:00;;;;;;;;;;;;;;;30.89;24.01;99946.03;4311982;33;34100;-95
2021/06/14 13:19:36;;;;;;;;;;;;;;;30.84;25.55;99946.13;4300218;33;33070;-89
2021/06/14 13:22:15;;;;;;;;;;;;;;;31.14;22.62;99936.19;4290816;33;33154;-96
2021/06/14 13:24:50;;;;;;;;;;;;;;;30.87;23.64;99937.97;4294157;33;33733;-89
2021/06/14 13:27:23;;;;;;;;;;;;;;;31.04;22.30;99919.72;4315417;33;34890;-90
2021/06/14 13:29:56;;;;;;;;;;;;;;;30.82;24.29;99929.72;4294196;33;34870;-91
2021/06/14 13:32:56;;;;;;;;;;;;;;;31.32;21.57;99925.91;4311929;33;33991;-95
2021/06/14 13:35:38;;;;;;;;;;;;;;;31.16;22.47;99915.16;4310020;33;33189;-94
2021/06/14 13:38:20;;;;;;;;;;;;;;;31.18;23.65;99925.19;4312652;33;33940;-92
2021/06/14 13:40:52;;;;;;;;;;;;;;;31.04;23.01;99920.53;4307171;33;35023;-93
2021/06/14 13:43:27;;;;;;;;;;;;;;;31.01;25.94;99910.00;4313389;33;33051;-94
2021/06/14 13:46:00;;;;;;;;;;;;;;;30.72;24.24;99910.47;4286408;33;33956;-90
2021/06/14 13:48:41;;;;;;;;;;;;;;;30.06;24.42;99908.97;4287400;33;32867;-94
2021/06/14 13:51:15;;;;;;;;;;;;;;;29.88;24.25;99912.72;4299283;33;34655;-88
2021/06/14 13:54:00;;;;;;;;;;;;;;;29.48;24.18;99904.91;4318266;33;34414;-88
2021/06/14 13:56:44;;;;;;;;;;;;;;;28.84;25.65;99897.22;4286774;33;33805;-94
2021/06/14 13:59:27;;;;;;;;;;;;;;;28.94;26.53;99889.81;4312105;33;33938;-88